createdAt,value
2017-08-13T00:00:05.627Z,0
2017-08-13T00:01:08.122Z,0
2017-08-13T00:02:10.630Z,0
2017-08-13T00:03:13.127Z,0
2017-08-13T00:04:15.630Z,0
2017-08-13T00:05:18.503Z,0
2017-08-13T00:06:21.365Z,0
2017-08-13T00:07:23.851Z,0
2017-08-13T00:08:26.364Z,0
2017-08-13T00:09:29.200Z,0
2017-08-13T00:10:31.705Z,0
2017-08-13T00:11:34.198Z,0
2017-08-13T00:12:36.697Z,0
2017-08-13T00:13:39.182Z,0
2017-08-13T00:14:42.033Z,0
2017-08-13T00:15:44.536Z,0
2017-08-13T00:16:47.032Z,0
2017-08-13T00:17:50.230Z,0
2017-08-13T00:18:52.739Z,0
2017-08-13T00:19:55.255Z,0
2017-08-13T00:20:58.108Z,0
2017-08-13T00:22:00.610Z,0
2017-08-13T00:23:03.830Z,0
2017-08-13T00:24:06.652Z,0
2017-08-13T00:25:10.170Z,0
2017-08-13T00:26:13.031Z,0
2017-08-13T00:27:15.871Z,0
2017-08-13T00:28:18.732Z,0
2017-08-13T00:29:21.589Z,0
2017-08-13T00:30:24.455Z,0
2017-08-13T00:31:26.956Z,0
2017-08-13T00:32:29.465Z,0
2017-08-13T00:33:31.945Z,0
2017-08-13T00:34:34.798Z,0
2017-08-13T00:35:37.307Z,0
2017-08-13T00:36:39.814Z,0
2017-08-13T00:37:42.653Z,0
2017-08-13T00:38:45.136Z,0
2017-08-13T00:39:47.654Z,0
2017-08-13T00:40:50.174Z,0
2017-08-13T00:41:53.019Z,0
2017-08-13T00:42:55.524Z,0
2017-08-13T00:43:58.042Z,0
2017-08-13T00:45:00.888Z,0
2017-08-13T00:46:04.423Z,0
2017-08-13T00:47:07.615Z,0
2017-08-13T00:48:10.443Z,0
2017-08-13T00:49:13.628Z,0
2017-08-13T00:50:16.466Z,0
2017-08-13T00:51:19.316Z,0
2017-08-13T00:52:22.167Z,0
2017-08-13T00:53:25.022Z,0
2017-08-13T00:54:28.198Z,0
2017-08-13T00:55:30.705Z,0
2017-08-13T00:56:33.554Z,0
2017-08-13T00:57:36.075Z,0
2017-08-13T00:58:38.565Z,0
2017-08-13T00:59:41.077Z,0
2017-08-13T01:00:43.584Z,0
2017-08-13T01:01:46.084Z,0
2017-08-13T01:02:48.592Z,0
2017-08-13T01:03:51.116Z,0
2017-08-13T01:04:53.957Z,0
2017-08-13T01:05:56.462Z,0
2017-08-13T01:06:59.305Z,0
2017-08-13T01:08:01.812Z,0
2017-08-13T01:09:04.650Z,0
2017-08-13T01:10:07.486Z,0
2017-08-13T01:11:10.341Z,0
2017-08-13T01:12:13.196Z,0
2017-08-13T01:13:15.712Z,0
2017-08-13T01:14:18.554Z,0
2017-08-13T01:15:21.416Z,0
2017-08-13T01:16:23.946Z,0
2017-08-13T01:17:26.444Z,0
2017-08-13T01:18:28.960Z,0
2017-08-13T01:19:31.455Z,0
2017-08-13T01:20:34.658Z,0
2017-08-13T01:21:37.170Z,0
2017-08-13T01:22:40.007Z,0
2017-08-13T01:23:42.845Z,0
2017-08-13T01:24:45.682Z,0
2017-08-13T01:25:48.200Z,0
2017-08-13T01:26:50.706Z,0
2017-08-13T01:27:53.236Z,0
2017-08-13T01:28:55.740Z,0
2017-08-13T01:29:58.261Z,0
2017-08-13T01:31:00.763Z,0
2017-08-13T01:32:03.291Z,0
2017-08-13T01:33:06.119Z,0
2017-08-13T01:34:08.639Z,0
2017-08-13T01:35:11.136Z,0
2017-08-13T01:36:13.995Z,0
2017-08-13T01:37:16.835Z,0
2017-08-13T01:38:19.342Z,0
2017-08-13T01:39:21.838Z,0
2017-08-13T01:40:24.699Z,0
2017-08-13T01:41:27.189Z,0
2017-08-13T01:42:29.707Z,0
2017-08-13T01:43:32.191Z,0
2017-08-13T01:44:34.703Z,0
2017-08-13T01:45:37.886Z,0
2017-08-13T01:46:40.388Z,0
2017-08-13T01:47:42.902Z,0
2017-08-13T01:48:45.744Z,0
2017-08-13T01:49:48.588Z,0
2017-08-13T01:50:51.761Z,0
2017-08-13T01:51:54.261Z,0
2017-08-13T01:52:57.103Z,0
2017-08-13T01:53:59.608Z,0
2017-08-13T01:55:03.144Z,0
2017-08-13T01:56:05.649Z,0
2017-08-13T01:57:08.183Z,0
2017-08-13T01:58:11.028Z,0
2017-08-13T01:59:13.538Z,0
2017-08-13T02:00:16.397Z,0
2017-08-13T02:01:19.236Z,0
2017-08-13T02:02:21.746Z,0
2017-08-13T02:03:24.600Z,0
2017-08-13T02:04:27.106Z,0
2017-08-13T02:05:29.617Z,0
2017-08-13T02:06:32.143Z,0
2017-08-13T02:07:34.634Z,0
2017-08-13T02:08:37.122Z,0
2017-08-13T02:09:39.629Z,0
2017-08-13T02:10:42.480Z,0
2017-08-13T02:11:44.980Z,0
2017-08-13T02:12:47.502Z,0
2017-08-13T02:13:50.315Z,0
2017-08-13T02:14:52.827Z,0
2017-08-13T02:15:55.340Z,0
2017-08-13T02:16:57.841Z,0
2017-08-13T02:18:00.354Z,0
2017-08-13T02:19:03.187Z,0
2017-08-13T02:20:05.708Z,0
2017-08-13T02:21:08.195Z,0
2017-08-13T02:22:11.390Z,0
2017-08-13T02:23:13.904Z,0
2017-08-13T02:24:16.394Z,0
2017-08-13T02:25:18.907Z,0
2017-08-13T02:26:21.408Z,0
2017-08-13T02:27:23.934Z,0
2017-08-13T02:28:26.504Z,0
2017-08-13T02:29:29.016Z,0
2017-08-13T02:30:31.517Z,0
2017-08-13T02:31:34.033Z,0
2017-08-13T02:32:36.894Z,0
2017-08-13T02:33:40.097Z,0
2017-08-13T02:34:42.621Z,0
2017-08-13T02:35:45.460Z,0
2017-08-13T02:36:48.324Z,0
2017-08-13T02:37:51.535Z,0
2017-08-13T02:38:54.389Z,0
2017-08-13T02:39:56.899Z,0
2017-08-13T02:40:59.407Z,0
2017-08-13T02:42:01.921Z,0
2017-08-13T02:43:04.425Z,0
2017-08-13T02:44:06.931Z,0
2017-08-13T02:45:09.424Z,0
2017-08-13T02:46:11.950Z,0
2017-08-13T02:47:14.469Z,0
2017-08-13T02:48:16.965Z,0
2017-08-13T02:49:19.473Z,0
2017-08-13T02:50:22.341Z,0
2017-08-13T02:51:24.886Z,0
2017-08-13T02:52:27.736Z,0
2017-08-13T02:53:30.590Z,0
2017-08-13T02:54:33.449Z,0
2017-08-13T02:55:36.305Z,0
2017-08-13T02:56:39.149Z,0
2017-08-13T02:57:41.664Z,0
2017-08-13T02:58:44.159Z,0
2017-08-13T02:59:46.688Z,0
2017-08-13T03:00:49.209Z,0
2017-08-13T03:01:51.703Z,0
2017-08-13T03:02:54.563Z,0
2017-08-13T03:03:57.415Z,0
2017-08-13T03:05:00.614Z,0
2017-08-13T03:06:03.783Z,0
2017-08-13T03:07:06.973Z,0
2017-08-13T03:08:09.482Z,0
2017-08-13T03:09:11.995Z,0
2017-08-13T03:10:14.497Z,0
2017-08-13T03:11:17.001Z,4
2017-08-13T03:12:19.509Z,4
2017-08-13T03:13:22.029Z,0
2017-08-13T03:14:24.872Z,4
2017-08-13T03:15:27.708Z,4
2017-08-13T03:16:30.212Z,4
2017-08-13T03:17:33.048Z,4
2017-08-13T03:18:35.560Z,8
2017-08-13T03:19:38.397Z,8
2017-08-13T03:20:40.879Z,8
2017-08-13T03:21:43.379Z,8
2017-08-13T03:22:45.916Z,12
2017-08-13T03:23:48.757Z,12
2017-08-13T03:24:51.262Z,16
2017-08-13T03:25:53.774Z,16
2017-08-13T03:26:56.255Z,20
2017-08-13T03:27:58.788Z,24
2017-08-13T03:29:01.284Z,28
2017-08-13T03:30:03.800Z,32
2017-08-13T03:31:06.663Z,32
2017-08-13T03:32:09.185Z,40
2017-08-13T03:33:12.043Z,44
2017-08-13T03:34:14.565Z,52
2017-08-13T03:35:17.395Z,60
2017-08-13T03:36:19.912Z,72
2017-08-13T03:37:23.079Z,80
2017-08-13T03:38:25.593Z,92
2017-08-13T03:39:28.085Z,96
2017-08-13T03:40:30.597Z,88
2017-08-13T03:41:33.086Z,108
2017-08-13T03:42:35.589Z,124
2017-08-13T03:43:38.092Z,136
2017-08-13T03:44:40.594Z,156
2017-08-13T03:45:43.098Z,168
2017-08-13T03:46:45.610Z,172
2017-08-13T03:47:48.122Z,204
2017-08-13T03:48:50.952Z,240
2017-08-13T03:49:53.797Z,272
2017-08-13T03:50:56.302Z,284
2017-08-13T03:51:58.831Z,320
2017-08-13T03:53:01.330Z,344
2017-08-13T03:54:03.825Z,360
2017-08-13T03:55:06.337Z,368
2017-08-13T03:56:09.195Z,368
2017-08-13T03:57:11.710Z,360
2017-08-13T03:58:14.213Z,392
2017-08-13T03:59:17.040Z,380
2017-08-13T04:00:19.543Z,408
2017-08-13T04:01:22.066Z,488
2017-08-13T04:02:24.557Z,496
2017-08-13T04:03:27.060Z,560
2017-08-13T04:04:29.930Z,560
2017-08-13T04:05:32.433Z,620
2017-08-13T04:06:34.940Z,612
2017-08-13T04:07:37.444Z,672
2017-08-13T04:08:39.944Z,728
2017-08-13T04:09:42.781Z,744
2017-08-13T04:10:45.635Z,800
2017-08-13T04:11:48.464Z,948
2017-08-13T04:12:50.980Z,948
2017-08-13T04:13:53.477Z,1040
2017-08-13T04:14:55.987Z,1096
2017-08-13T04:15:58.867Z,1144
2017-08-13T04:17:01.373Z,1384
2017-08-13T04:18:03.882Z,1380
2017-08-13T04:19:06.369Z,1436
2017-08-13T04:20:08.886Z,1392
2017-08-13T04:21:11.395Z,1532
2017-08-13T04:22:13.906Z,1300
2017-08-13T04:23:16.395Z,1344
2017-08-13T04:24:19.246Z,1528
2017-08-13T04:25:21.735Z,1512
2017-08-13T04:26:24.263Z,1620
2017-08-13T04:27:27.087Z,1776
2017-08-13T04:28:30.014Z,1840
2017-08-13T04:29:33.202Z,2080
2017-08-13T04:30:35.716Z,2440
2017-08-13T04:31:38.552Z,2716
2017-08-13T04:32:41.081Z,2952
2017-08-13T04:33:43.576Z,3076
2017-08-13T04:34:46.089Z,2956
2017-08-13T04:35:49.259Z,2636
2017-08-13T04:36:51.747Z,2424
2017-08-13T04:37:55.282Z,2252
2017-08-13T04:38:57.781Z,1844
2017-08-13T04:40:00.295Z,1760
2017-08-13T04:41:03.488Z,1728
2017-08-13T04:42:05.987Z,1788
2017-08-13T04:43:08.506Z,1744
2017-08-13T04:44:11.028Z,1704
2017-08-13T04:45:13.517Z,1764
2017-08-13T04:46:16.024Z,2036
2017-08-13T04:47:18.538Z,2232
2017-08-13T04:48:21.038Z,2404
2017-08-13T04:49:23.531Z,2288
2017-08-13T04:50:26.034Z,2552
2017-08-13T04:51:28.543Z,2720
2017-08-13T04:52:31.037Z,2760
2017-08-13T04:53:33.546Z,2840
2017-08-13T04:54:36.047Z,3088
2017-08-13T04:55:38.560Z,3208
2017-08-13T04:56:41.069Z,3340
2017-08-13T04:57:43.587Z,3300
2017-08-13T04:58:46.078Z,3212
2017-08-13T04:59:48.589Z,3200
2017-08-13T05:00:51.436Z,3080
2017-08-13T05:01:53.941Z,2960
2017-08-13T05:02:56.444Z,2744
2017-08-13T05:03:59.281Z,2600
2017-08-13T05:05:01.805Z,2416
2017-08-13T05:06:04.639Z,2272
2017-08-13T05:07:07.160Z,2256
2017-08-13T05:08:09.667Z,2452
2017-08-13T05:09:12.183Z,2272
2017-08-13T05:10:15.036Z,2112
2017-08-13T05:11:17.541Z,1948
2017-08-13T05:12:20.047Z,1796
2017-08-13T05:13:22.907Z,1540
2017-08-13T05:14:25.403Z,1616
2017-08-13T05:15:28.264Z,1584
2017-08-13T05:16:30.770Z,1844
2017-08-13T05:17:33.268Z,2088
2017-08-13T05:18:35.777Z,2304
2017-08-13T05:19:38.281Z,2240
2017-08-13T05:20:40.785Z,2132
2017-08-13T05:21:43.288Z,2244
2017-08-13T05:22:45.817Z,2288
2017-08-13T05:23:48.660Z,2664
2017-08-13T05:24:51.505Z,2896
2017-08-13T05:25:54.021Z,3504
2017-08-13T05:26:56.865Z,3784
2017-08-13T05:27:59.360Z,3804
2017-08-13T05:29:01.856Z,3928
2017-08-13T05:30:04.357Z,3756
2017-08-13T05:31:06.875Z,4036
2017-08-13T05:32:09.740Z,4932
2017-08-13T05:33:12.585Z,5076
2017-08-13T05:34:15.435Z,4880
2017-08-13T05:35:17.953Z,4968
2017-08-13T05:36:20.470Z,5488
2017-08-13T05:37:22.969Z,5368
2017-08-13T05:38:25.471Z,5612
2017-08-13T05:39:27.970Z,5736
2017-08-13T05:40:31.862Z,5552
2017-08-13T05:41:34.370Z,5808
2017-08-13T05:42:36.886Z,5964
2017-08-13T05:43:39.408Z,6236
2017-08-13T05:44:41.898Z,6160
2017-08-13T05:45:44.405Z,5768
2017-08-13T05:46:47.265Z,6284
2017-08-13T05:47:50.111Z,5664
2017-08-13T05:48:52.611Z,5456
2017-08-13T05:49:55.454Z,5012
2017-08-13T05:50:57.962Z,5516
2017-08-13T05:52:00.472Z,5988
2017-08-13T05:53:02.970Z,6612
2017-08-13T05:54:05.813Z,7096
2017-08-13T05:55:08.661Z,7112
2017-08-13T05:56:11.174Z,7012
2017-08-13T05:57:13.670Z,6816
2017-08-13T05:58:16.173Z,7828
2017-08-13T05:59:18.664Z,8168
2017-08-13T06:00:21.191Z,8516
2017-08-13T06:01:24.027Z,8832
2017-08-13T06:02:26.532Z,9252
2017-08-13T06:03:29.395Z,9816
2017-08-13T06:04:31.904Z,9996
2017-08-13T06:05:34.413Z,9684
2017-08-13T06:06:37.278Z,9200
2017-08-13T06:07:39.791Z,9216
2017-08-13T06:08:42.289Z,9556
2017-08-13T06:09:44.783Z,9532
2017-08-13T06:10:47.625Z,9584
2017-08-13T06:11:50.123Z,9620
2017-08-13T06:12:52.642Z,9544
2017-08-13T06:13:55.129Z,8680
2017-08-13T06:14:57.654Z,6820
2017-08-13T06:16:00.513Z,5288
2017-08-13T06:17:03.017Z,4712
2017-08-13T06:18:05.892Z,6492
2017-08-13T06:19:08.411Z,7152
2017-08-13T06:20:11.598Z,7956
2017-08-13T06:21:14.109Z,9268
2017-08-13T06:22:16.979Z,9980
2017-08-13T06:23:19.485Z,10384
2017-08-13T06:24:21.989Z,10300
2017-08-13T06:25:24.496Z,9832
2017-08-13T06:26:27.014Z,9540
2017-08-13T06:27:29.525Z,8736
2017-08-13T06:28:32.401Z,8456
2017-08-13T06:29:34.911Z,7860
2017-08-13T06:30:37.409Z,9608
2017-08-13T06:31:39.941Z,10796
2017-08-13T06:32:42.430Z,10684
2017-08-13T06:33:44.948Z,10804
2017-08-13T06:34:47.789Z,11760
2017-08-13T06:35:50.321Z,11224
2017-08-13T06:36:52.826Z,12696
2017-08-13T06:37:55.669Z,13212
2017-08-13T06:38:58.159Z,13228
2017-08-13T06:40:00.670Z,12300
2017-08-13T06:41:03.542Z,10552
2017-08-13T06:42:06.383Z,10044
2017-08-13T06:43:08.900Z,9392
2017-08-13T06:44:11.405Z,9644
2017-08-13T06:45:13.915Z,12768
2017-08-13T06:46:16.439Z,10732
2017-08-13T06:47:18.964Z,11968
2017-08-13T06:48:21.490Z,15084
2017-08-13T06:49:24.007Z,14264
2017-08-13T06:50:26.525Z,14452
2017-08-13T06:51:29.021Z,14300
2017-08-13T06:52:31.878Z,13132
2017-08-13T06:53:34.390Z,12264
2017-08-13T06:54:37.263Z,12600
2017-08-13T06:55:40.129Z,13180
2017-08-13T06:56:42.637Z,11452
2017-08-13T06:57:45.121Z,12192
2017-08-13T06:58:47.989Z,13680
2017-08-13T06:59:50.516Z,16776
2017-08-13T07:00:53.350Z,20480
2017-08-13T07:01:56.213Z,18560
2017-08-13T07:02:59.047Z,16296
2017-08-13T07:04:01.891Z,17708
2017-08-13T07:05:04.428Z,19712
2017-08-13T07:06:07.265Z,16820
2017-08-13T07:07:10.121Z,16652
2017-08-13T07:08:12.959Z,14356
2017-08-13T07:09:15.465Z,11372
2017-08-13T07:10:17.980Z,10164
2017-08-13T07:11:20.494Z,9428
2017-08-13T07:12:23.364Z,10108
2017-08-13T07:13:25.892Z,13272
2017-08-13T07:14:28.398Z,16308
2017-08-13T07:15:30.913Z,19040
2017-08-13T07:16:33.406Z,17912
2017-08-13T07:17:35.924Z,14420
2017-08-13T07:18:38.443Z,13316
2017-08-13T07:19:40.948Z,15252
2017-08-13T07:20:43.803Z,16932
2017-08-13T07:21:46.320Z,16524
2017-08-13T07:22:48.860Z,14480
2017-08-13T07:23:51.354Z,16176
2017-08-13T07:24:53.868Z,18944
2017-08-13T07:25:56.385Z,19360
2017-08-13T07:26:58.881Z,19200
2017-08-13T07:28:01.391Z,20288
2017-08-13T07:29:04.252Z,18732
2017-08-13T07:30:06.742Z,19648
2017-08-13T07:31:09.612Z,15532
2017-08-13T07:32:12.130Z,12932
2017-08-13T07:33:14.629Z,12544
2017-08-13T07:34:17.482Z,16712
2017-08-13T07:35:19.982Z,15684
2017-08-13T07:36:22.494Z,14604
2017-08-13T07:37:25.035Z,16380
2017-08-13T07:38:27.540Z,12976
2017-08-13T07:39:30.400Z,14020
2017-08-13T07:40:32.904Z,19200
2017-08-13T07:41:35.437Z,17496
2017-08-13T07:42:37.952Z,12480
2017-08-13T07:43:40.801Z,12984
2017-08-13T07:44:43.309Z,14324
2017-08-13T07:45:45.840Z,16496
2017-08-13T07:46:48.670Z,17076
2017-08-13T07:47:51.188Z,17540
2017-08-13T07:48:53.711Z,17500
2017-08-13T07:49:56.543Z,16748
2017-08-13T07:50:59.416Z,17224
2017-08-13T07:52:02.293Z,18976
2017-08-13T07:53:04.797Z,17844
2017-08-13T07:54:07.311Z,17196
2017-08-13T07:55:09.828Z,11948
2017-08-13T07:56:12.332Z,8400
2017-08-13T07:57:14.856Z,7072
2017-08-13T07:58:18.062Z,6968
2017-08-13T07:59:20.908Z,7524
2017-08-13T08:00:23.422Z,9376
2017-08-13T08:01:26.615Z,11636
2017-08-13T08:02:30.148Z,12472
2017-08-13T08:03:33.001Z,12460
2017-08-13T08:04:35.493Z,13440
2017-08-13T08:05:38.377Z,15004
2017-08-13T08:06:40.891Z,16808
2017-08-13T08:07:43.393Z,20416
2017-08-13T08:08:45.914Z,24032
2017-08-13T08:09:48.763Z,24384
2017-08-13T08:10:51.268Z,22240
2017-08-13T08:11:53.790Z,21920
2017-08-13T08:12:56.322Z,25440
2017-08-13T08:13:58.828Z,30080
2017-08-13T08:15:01.342Z,97952
2017-08-13T08:16:04.198Z,35840
2017-08-13T08:17:06.718Z,15332
2017-08-13T08:18:09.255Z,16240
2017-08-13T08:19:12.121Z,18260
2017-08-13T08:20:14.991Z,16824
2017-08-13T08:21:17.487Z,16120
2017-08-13T08:22:20.015Z,15552
2017-08-13T08:23:22.591Z,15380
2017-08-13T08:24:25.097Z,101184
2017-08-13T08:25:27.616Z,102976
2017-08-13T08:26:30.455Z,85888
2017-08-13T08:27:32.955Z,83520
2017-08-13T08:28:35.504Z,77088
2017-08-13T08:29:38.366Z,83648
2017-08-13T08:30:40.863Z,79648
2017-08-13T08:31:43.396Z,22368
2017-08-13T08:32:45.915Z,38848
2017-08-13T08:33:48.775Z,29088
2017-08-13T08:34:51.299Z,108544
2017-08-13T08:35:53.808Z,66464
2017-08-13T08:36:56.644Z,24992
2017-08-13T08:37:59.158Z,138368
2017-08-13T08:39:02.037Z,136064
2017-08-13T08:40:04.899Z,60416
2017-08-13T08:41:07.414Z,12676
2017-08-13T08:42:09.921Z,12416
2017-08-13T08:43:12.480Z,31968
2017-08-13T08:44:15.320Z,91232
2017-08-13T08:45:17.819Z,100832
2017-08-13T08:46:20.322Z,112128
2017-08-13T08:47:22.848Z,110112
2017-08-13T08:48:25.369Z,36512
2017-08-13T08:49:27.919Z,29568
2017-08-13T08:50:30.639Z,25344
2017-08-13T08:51:33.495Z,20288
2017-08-13T08:52:36.060Z,18368
2017-08-13T08:53:38.717Z,18128
2017-08-13T08:54:43.897Z,21632
2017-08-13T08:55:47.086Z,27168
2017-08-13T08:56:49.621Z,35712
2017-08-13T08:57:52.148Z,30432
2017-08-13T08:58:54.665Z,22784
2017-08-13T08:59:57.521Z,21152
2017-08-13T09:01:00.041Z,22528
2017-08-13T09:02:02.571Z,26912
2017-08-13T09:03:05.411Z,35456
2017-08-13T09:04:08.314Z,70816
2017-08-13T09:05:11.373Z,94208
2017-08-13T09:06:13.883Z,48512
2017-08-13T09:07:22.868Z,51648
2017-08-13T09:08:25.732Z,42528
2017-08-13T09:09:28.233Z,33216
2017-08-13T09:10:30.737Z,26464
2017-08-13T09:11:33.259Z,23840
2017-08-13T09:12:36.449Z,23456
2017-08-13T09:13:39.362Z,24352
2017-08-13T09:14:42.817Z,26240
2017-08-13T09:15:45.327Z,28576
2017-08-13T09:16:47.839Z,32320
2017-08-13T09:17:51.049Z,34496
2017-08-13T09:18:53.903Z,38080
2017-08-13T09:19:56.422Z,109312
2017-08-13T09:20:58.926Z,62496
2017-08-13T09:22:01.775Z,60224
2017-08-13T09:23:04.285Z,47136
2017-08-13T09:24:06.794Z,43232
2017-08-13T09:25:09.306Z,44448
2017-08-13T09:26:11.790Z,144000
2017-08-13T09:27:14.300Z,51744
2017-08-13T09:28:16.804Z,67072
2017-08-13T09:29:19.296Z,58144
2017-08-13T09:30:22.154Z,96800
2017-08-13T09:31:24.657Z,90080
2017-08-13T09:32:27.176Z,47104
2017-08-13T09:33:30.024Z,43520
2017-08-13T09:34:32.871Z,52544
2017-08-13T09:35:35.699Z,46080
2017-08-13T09:36:38.217Z,43680
2017-08-13T09:37:41.398Z,38496
2017-08-13T09:38:43.903Z,76160
2017-08-13T09:39:46.413Z,32416
2017-08-13T09:40:50.270Z,32096
2017-08-13T09:41:52.772Z,33792
2017-08-13T09:42:55.297Z,34848
2017-08-13T09:43:58.668Z,36800
2017-08-13T09:45:01.173Z,36000
2017-08-13T09:46:04.037Z,37056
2017-08-13T09:47:06.550Z,38528
2017-08-13T09:48:09.058Z,54048
2017-08-13T09:49:11.568Z,132928
2017-08-13T09:50:14.429Z,56608
2017-08-13T09:51:16.942Z,138720
2017-08-13T09:52:19.421Z,111232
2017-08-13T09:53:22.627Z,112352
2017-08-13T09:54:25.136Z,109760
2017-08-13T09:55:27.983Z,55328
2017-08-13T09:56:30.854Z,43456
2017-08-13T09:57:33.372Z,43808
2017-08-13T09:58:36.214Z,40224
2017-08-13T09:59:38.746Z,41952
2017-08-13T10:00:41.275Z,148512
2017-08-13T10:01:43.785Z,65536
2017-08-13T10:02:46.292Z,142432
2017-08-13T10:03:49.145Z,38784
2017-08-13T10:04:51.663Z,30272
2017-08-13T10:05:54.499Z,32288
2017-08-13T10:06:57.032Z,54560
2017-08-13T10:07:59.541Z,50688
2017-08-13T10:09:02.390Z,34400
2017-08-13T10:10:04.886Z,29728
2017-08-13T10:11:07.413Z,43840
2017-08-13T10:12:10.253Z,53728
2017-08-13T10:13:12.749Z,134592
2017-08-13T10:14:15.575Z,59872
2017-08-13T10:15:18.055Z,43328
2017-08-13T10:16:20.530Z,25152
2017-08-13T10:17:23.354Z,31136
2017-08-13T10:18:25.828Z,36064
2017-08-13T10:19:28.663Z,48384
2017-08-13T10:20:31.161Z,61952
2017-08-13T10:21:34.392Z,47936
2017-08-13T10:22:37.228Z,44928
2017-08-13T10:23:40.079Z,44992
2017-08-13T10:24:42.903Z,178944
2017-08-13T10:25:45.399Z,125920
2017-08-13T10:26:48.251Z,52096
2017-08-13T10:27:50.780Z,45952
2017-08-13T10:28:53.961Z,49024
2017-08-13T10:29:56.458Z,26400
2017-08-13T10:30:58.959Z,23264
2017-08-13T10:32:01.785Z,21504
2017-08-13T10:33:04.284Z,20416
2017-08-13T10:34:06.796Z,19840
2017-08-13T10:35:09.620Z,19872
2017-08-13T10:36:12.116Z,20352
2017-08-13T10:37:14.637Z,21120
2017-08-13T10:38:17.137Z,22592
2017-08-13T10:39:19.638Z,26080
2017-08-13T10:40:22.134Z,30560
2017-08-13T10:41:24.961Z,41952
2017-08-13T10:42:27.823Z,44160
2017-08-13T10:43:30.333Z,46336
2017-08-13T10:44:32.817Z,47392
2017-08-13T10:45:35.320Z,46592
2017-08-13T10:46:37.806Z,44320
2017-08-13T10:47:40.295Z,44448
2017-08-13T10:48:42.803Z,42016
2017-08-13T10:49:45.304Z,43456
2017-08-13T10:50:47.831Z,33984
2017-08-13T10:51:51.013Z,30432
2017-08-13T10:52:53.853Z,28448
2017-08-13T10:53:56.353Z,26496
2017-08-13T10:54:58.850Z,24672
2017-08-13T10:56:01.345Z,22176
2017-08-13T10:57:04.198Z,20192
2017-08-13T10:58:07.389Z,18504
2017-08-13T10:59:09.908Z,17552
2017-08-13T11:00:13.073Z,17392
2017-08-13T11:01:15.572Z,17976
2017-08-13T11:02:18.086Z,18036
2017-08-13T11:03:20.577Z,17772
2017-08-13T11:04:23.106Z,17624
2017-08-13T11:05:25.620Z,17428
2017-08-13T11:06:29.490Z,17120
2017-08-13T11:07:32.007Z,16856
2017-08-13T11:08:34.489Z,16876
2017-08-13T11:09:36.983Z,17056
2017-08-13T11:10:39.484Z,17284
2017-08-13T11:11:41.990Z,17608
2017-08-13T11:12:44.485Z,18428
2017-08-13T11:13:47.331Z,19936
2017-08-13T11:14:49.836Z,21344
2017-08-13T11:15:52.313Z,22720
2017-08-13T11:16:54.823Z,24064
2017-08-13T11:17:57.323Z,25024
2017-08-13T11:19:00.168Z,25152
2017-08-13T11:20:03.679Z,25504
2017-08-13T11:21:06.200Z,28000
2017-08-13T11:22:08.707Z,30784
2017-08-13T11:23:11.559Z,29184
2017-08-13T11:24:14.062Z,23872
2017-08-13T11:25:17.339Z,19808
2017-08-13T11:26:19.869Z,16312
2017-08-13T11:27:22.400Z,14224
2017-08-13T11:28:24.898Z,13608
2017-08-13T11:29:28.095Z,14220
2017-08-13T11:30:30.590Z,16736
2017-08-13T11:31:33.436Z,22560
2017-08-13T11:32:36.292Z,30912
2017-08-13T11:33:39.145Z,36992
2017-08-13T11:34:41.622Z,36480
2017-08-13T11:35:44.143Z,32800
2017-08-13T11:36:46.646Z,29472
2017-08-13T11:37:49.493Z,27264
2017-08-13T11:38:52.007Z,27328
2017-08-13T11:39:54.488Z,31360
2017-08-13T11:40:56.983Z,103872
2017-08-13T11:41:59.498Z,142944
2017-08-13T11:43:01.984Z,133184
2017-08-13T11:44:04.476Z,60576
2017-08-13T11:45:07.333Z,54944
2017-08-13T11:46:09.840Z,54240
2017-08-13T11:47:12.356Z,65600
2017-08-13T11:48:15.197Z,70944
2017-08-13T11:49:18.379Z,91680
2017-08-13T11:50:20.887Z,36256
2017-08-13T11:51:23.394Z,29600
2017-08-13T11:52:26.233Z,25984
2017-08-13T11:53:28.759Z,23552
2017-08-13T11:54:31.613Z,23200
2017-08-13T11:55:34.616Z,23552
2017-08-13T11:56:37.471Z,22656
2017-08-13T11:57:40.298Z,21056
2017-08-13T11:58:42.795Z,20352
2017-08-13T11:59:45.646Z,19776
2017-08-13T12:00:48.137Z,20032
2017-08-13T12:01:50.989Z,22496
2017-08-13T12:02:53.498Z,28448
2017-08-13T12:03:56.001Z,37056
2017-08-13T12:04:58.527Z,55136
2017-08-13T12:06:01.042Z,129632
2017-08-13T12:07:03.900Z,127680
2017-08-13T12:08:06.427Z,134016
2017-08-13T12:09:09.218Z,137504
2017-08-13T12:10:11.732Z,130560
2017-08-13T12:11:14.243Z,121728
2017-08-13T12:12:16.757Z,116704
2017-08-13T12:13:19.267Z,115584
2017-08-13T12:14:21.756Z,111072
2017-08-13T12:15:24.955Z,95968
2017-08-13T12:16:27.445Z,99744
2017-08-13T12:17:29.950Z,106080
2017-08-13T12:18:32.467Z,111776
2017-08-13T12:19:34.997Z,119008
2017-08-13T12:20:37.490Z,119232
2017-08-13T12:21:39.992Z,89952
2017-08-13T12:22:42.488Z,117408
2017-08-13T12:23:44.989Z,114816
2017-08-13T12:24:47.481Z,120000
2017-08-13T12:25:50.008Z,114496
2017-08-13T12:26:52.509Z,107488
2017-08-13T12:27:55.011Z,66880
2017-08-13T12:28:57.513Z,112960
2017-08-13T12:30:00.014Z,107616
2017-08-13T12:31:02.883Z,107328
2017-08-13T12:32:05.726Z,112320
2017-08-13T12:33:08.225Z,119008
2017-08-13T12:34:11.085Z,123520
2017-08-13T12:35:13.600Z,123648
2017-08-13T12:36:16.122Z,109184
2017-08-13T12:37:18.636Z,124928
2017-08-13T12:38:21.580Z,133920
2017-08-13T12:39:24.378Z,126496
2017-08-13T12:40:26.911Z,23360
2017-08-13T12:41:29.414Z,26112
2017-08-13T12:42:31.926Z,23040
2017-08-13T12:43:34.770Z,33376
2017-08-13T12:44:37.604Z,117824
2017-08-13T12:45:40.106Z,118976
2017-08-13T12:46:42.958Z,118048
2017-08-13T12:47:45.448Z,121600
2017-08-13T12:48:47.942Z,68864
2017-08-13T12:49:50.443Z,119456
2017-08-13T12:50:53.284Z,48000
2017-08-13T12:51:56.471Z,24608
2017-08-13T12:52:59.319Z,25600
2017-08-13T12:54:02.148Z,120032
2017-08-13T12:55:04.643Z,123264
2017-08-13T12:56:07.535Z,126752
2017-08-13T12:57:10.029Z,125696
2017-08-13T12:58:12.550Z,118112
2017-08-13T12:59:15.065Z,122048
2017-08-13T13:00:17.575Z,117408
2017-08-13T13:01:20.414Z,94304
2017-08-13T13:02:23.599Z,107264
2017-08-13T13:03:26.083Z,83840
2017-08-13T13:04:29.059Z,38240
2017-08-13T13:05:31.919Z,92960
2017-08-13T13:06:39.272Z,128320
2017-08-13T13:07:41.806Z,92352
2017-08-13T13:08:44.638Z,42240
2017-08-13T13:09:47.690Z,45408
2017-08-13T13:10:51.721Z,55616
2017-08-13T13:11:56.818Z,52864
2017-08-13T13:12:59.542Z,43008
2017-08-13T13:14:02.774Z,38208
2017-08-13T13:15:05.281Z,35840
2017-08-13T13:16:08.167Z,29216
2017-08-13T13:17:11.218Z,25984
2017-08-13T13:18:14.075Z,25280
2017-08-13T13:19:16.595Z,24640
2017-08-13T13:20:19.448Z,22720
2017-08-13T13:21:22.678Z,19936
2017-08-13T13:22:25.504Z,18848
2017-08-13T13:23:28.003Z,20064
2017-08-13T13:24:30.497Z,23008
2017-08-13T13:25:33.020Z,28480
2017-08-13T13:26:35.520Z,32704
2017-08-13T13:27:38.037Z,37728
2017-08-13T13:28:40.544Z,59520
2017-08-13T13:29:43.073Z,79200
2017-08-13T13:30:45.920Z,52992
2017-08-13T13:31:48.762Z,53920
2017-08-13T13:32:51.280Z,49408
2017-08-13T13:33:53.819Z,56736
2017-08-13T13:34:56.340Z,39296
2017-08-13T13:35:59.184Z,42432
2017-08-13T13:37:01.687Z,42464
2017-08-13T13:38:04.535Z,33536
2017-08-13T13:39:07.389Z,31968
2017-08-13T13:40:09.879Z,32096
2017-08-13T13:41:12.399Z,34816
2017-08-13T13:42:14.918Z,41664
2017-08-13T13:43:17.414Z,57408
2017-08-13T13:44:19.901Z,67232
2017-08-13T13:45:22.400Z,25664
2017-08-13T13:46:24.921Z,20192
2017-08-13T13:47:27.423Z,17880
2017-08-13T13:48:29.939Z,16688
2017-08-13T13:49:32.803Z,15548
2017-08-13T13:50:35.308Z,14488
2017-08-13T13:51:37.806Z,14024
2017-08-13T13:52:40.658Z,13456
2017-08-13T13:53:43.141Z,12240
2017-08-13T13:54:45.639Z,11344
2017-08-13T13:55:48.156Z,11144
2017-08-13T13:56:50.646Z,11112
2017-08-13T13:57:53.490Z,10888
2017-08-13T13:58:56.348Z,10568